Timeline UpdatesTrip UpdatesNews PostsPvt PostsTravel TipsAdmin PostsConv PostsFollowed PostsChat RequestsBlog PostsPNR Posts

Disclaimer
Search
 
 
Sun Sep 21, 2014 23:41:28 ISTHomeTrainsΣChainsAtlasPNRForumGalleryNewsFAQTripsMembersLoginFeedback
No Recent News for this Train
Other Trains in the News **new
Latest...
Permanent AC-3T added from 01 Sep 12 http://indiarailinfo.com/blog/post/512304
Sat Aug 25, 2012 (09:15AM)
⇐ Return Journey: Train# 18234

18233/Narmada Express

Time-Table HAS CHANGED.
Sep 02 (12:06AM)
Change Departure Station:
Change Arrival Station:
Post a Train Travel TipPost a Train Travel Tip **new
Post a Comment/Question/Picture/VideoPost a Comment/Question/Picture/Video
Pantry/Catering
✕ NO Pantry Car
✓ Catering Avbl
Loco/Rake Reversals
UJN/Ujjain Junction (8); ET/Itarsi Junction (7); KTE/Katni Junction (6);
RSA - Rake Sharing
Rake/Coach Composition
ENG-SLR-GS-GS-GS-S1-S2-S3-S4-S5-S6-S7-S8-S9-S10-A1-HA1-B1-B2-GS-GS-SLR (INDB-UJN, ET-KTE); ENG-SLR-GS-GS-B2-B1-HA1-A1-S10-S9-S8-S7-S6-S5-S4-S3-S2-S1-GS-GS-GS-SLR (UJN-ET), (KTE-BSP)
Loco
ET WAM 4/6p (INDB-ET) ET WDP4/WDM-3A (ET-KTE) ET WAM/P4 (KTE-BSP)
News    PNR    Forum    Time-Table    Availability    Fare Chart    Map    Arr/Dep History    Trips    Gallery    ΣChains    X/O    Timeline    
Travel Time: 0h 28m    1 halts    Distance: 25 km    Avg Speed: 53 km/hr
Type: Mail/Express
Zone: SECR/South East Central
Departs @ 17:15
Platform# 3
SMTWTFS
Indore Junction BG/INDB 
Arrives @ 17:43
Platform# ???
SMTWTFS
Barlai/BLAX 

1 halts. 4 intermediate Stations between Indore Junction BG and Barlai

Show ALL intermediate Stations  Show Old Time-Table

#CodeStation NameX/OArrivesAvgDepartsAvgHaltPFDay#KmSpeedElevZoneAddress
1INDBIndore Junction BG (3)»  -17:15-310.050552mWRIndore 452001, Madhya Pradesh
2MGGMangliyagaon (2)  17:31 17:33-17:33 17:34-2 1m--115.067534mWRMangilya, Madhya Pradesh
3BLAXBarlai•  17:41 17:43-17:43 17:44-2 1m--125.043519mWRIndore, Madhya Pradesh
4DWXDewas Junction (2)X  18:01 18:03-18:03 18:05-2m2138.836541mWRDewas, Madhya Pradesh
5NRGRNaranjipur (1)X  18:19 18:21-18:21 18:22-2 1m1148.338537mWRDewas, Madhya Pradesh
6UDMUndasa Madhopur  18:32 18:34-18:34 18:35-2 1m--155.942528mWRState Highway 18, Madhya Pradesh
7KDHAKarchhaX  18:41 18:43-18:43 18:45-2m--161.449514mWRState Highway 18, Madhya Pradesh
8VRGVikram Nagar (2)  18:58 19:00-19:00 19:01-2 1m--173.736503mWRUjjain, Madhya Pradesh
9UJNUjjain Junction (8)19:10-19:40-30m1179.174492mWRUjjain 456001, Madhya Pradesh
10TANTarana Road  20:06 20:07-20:07 20:08-1m--1112.657498mWRMaksi, Madhya Pradesh
11MKCMaksi Junction (3)X  20:18-20:20-2m--1122.271513mWRMakshi, Madhya Pradesh
12BCHBerchha (2)  20:34 20:36-20:36 20:38-2m--1141.066490mWRShajapur, Madhya Pradesh
13KSHKali Sindh (2)  20:47 20:49-20:49 20:50-2 1m--1153.263443mWRShajapur, Madhya Pradesh
14AKDAkodia (2)  21:05 21:07-21:07 21:08-2 1m--1171.165460mWRDist. Shajapur, Madhya Pradesh
15SJPShujalpur (3)X  21:18 21:20-21:20 21:22-2m21184.169453mWRShujalpur, Madhya Pradesh
16KPPKalapipal (2)X  21:31 21:33-21:33 21:35-2m--1196.747487mWRState Highway 41, Madhya Pradesh
17SEHSehore (2)  22:10 22:12-22:12 22:14-2m21225.837500mWRMP 466001, Madhya Pradesh
18BIHBairagarh (2)  22:59 23:00-23:01 23:02-2m21254.247522mWRBhopal, Madhya Pradesh
19BPLBhopal Junction (6)X  23:15-23:25-10m31264.538497mWCRBhopal, Madhya Pradesh
20HBJBhopal HabibGanj (5)  23:35-23:37-2m41270.764496mWCRHabibGanj, Madhya Pradesh
21MDDPMandi Dip (1)X  23:52-23:54-2m11286.814 WCRMandideep, Madhya Pradesh
22ODGObaidulla GanjXO  00:53-00:55-2m12300.458 WCRObaidullaganj Raisen Dist., Madhya Pradesh
23HBDHoshangabad (2)X  01:34-01:36-2m--2338.128308mWCRHoshangabad, Madhya Pradesh
24ETItarsi Junction (7)02:15-02:25-10m32356.257329mWCRItarsi 461111, Madhya Pradesh
25BGTABagratawa (2)X  02:52 02:53-02:54-2 1m--2382.677338mWCRBagra Tawa, Madhya Pradesh
26SGPSohagpur (2)  03:12-03:14-2m--2405.776340mWCRSohagpur, Madhya Pradesh
27PPIPipariya (3)X  03:28-03:30-2m12423.482338mWCRPiparia, Madhya Pradesh
28SCKRSalichauka Road (2)X  03:54 03:56-03:56 03:58-2m--2458.993355mWCRGadarwara, Madhya Pradesh
29GARGadarwara (2)X  04:07-04:09-2m12472.881352mWCRNarsinghpur, Madhya Pradesh
30KYKareli (2)  04:30-04:32-2m12501.363361mWCRKareli, Madhya Pradesh
31NUNarsinghpur (2)X  04:47-04:49-2m12517.272365mWCRNarsimhapur, Madhya Pradesh
32SRIDShridham (3)  05:14 05:15-05:16-2 1m22548.363373mWCRShridham, Madhya Pradesh
33MMLMadan Mahal (3)X  06:01 06:03-06:03 06:05-2m22597.910428mWCRJabalpur, Madhya Pradesh
34JBPJabalpur Junction (4)X  06:15 06:25-06:25 06:35-10m32601.233416mWCRJabalpur, Madhya Pradesh
35ADTLAdhartal (2)XO  06:38 06:50-06:40 06:52-2m--2609.459393mWCRJabalpur, Madhya Pradesh
36DOEDeori (2)X  06:53 07:01-06:55 07:03-2m--2618.270392mWCRJabalpur, Madhya Pradesh
37GSPRGosalpur (2)X  07:08 07:12-07:10 07:14-2m--2628.761396mWCRJabalpur, Madhya Pradesh
38SHRSihora Road (2)  07:24 07:25-07:26 07:27-2m--2639.881388mWCRJabalpur, Madhya Pradesh
39DDCEDundi (2)X  07:38-07:40-2m--2654.771415mWCRDundi, Madhya Pradesh
40SBDSleemanabad Road (2)  07:48-07:50-2m--2664.246434mWCRSleemanabad, Madhya Pradesh
41SNRRSansarpur (2)  07:58 07:59-08:00-2 1m--2671.158436mWCRNational Highway 7, Madhya Pradesh
42NWRNiwar (2)X  08:08-08:10-2m--2678.916412mWCRPipraundh, Madhya Pradesh
43KTEKatni Junction (6)09:00-09:20 09:10-20 10m--2692.016387mWCRKatni, Madhya Pradesh
44JLWJhalwara  09:49-09:51-2m--2702.670406mSECRNational Highway 78, Madhya Pradesh
45RPDRupaund  10:01-10:03-2m--2714.374417mSECRJhalwara, Madhya Pradesh
46CHDChandia Road (1)  10:17-10:19-2m12731.654406mSECRNational Highway 78, Madhya Pradesh
47UMRUmaria (3)  10:40-10:45 10:42-5 2m--2750.795469mSECRUmaria, Madhya Pradesh
48KKIKarkeli  10:53 10:50-10:55 10:52-2m--2763.360471mSECRUmaria, Madhya Pradesh
49NRZBNowrozabadX  11:05 11:02-11:07 11:04-2m--2773.362458mSECRNational Highway 78, Madhya Pradesh
50BRSBirsinghpur  11:14 11:11-11:16 11:13-2m--2780.548461mSECRPali, Madhya Pradesh
51SDLShahdolX  12:00-12:10-10m12817.978466mSECR, Madhya Pradesh
52BUHBurhar  12:26 12:25-12:28 12:27-2m--2837.465494mSECRBurhar, Madhya Pradesh
53AALAmlaiX  12:36 12:35-12:38 12:37-2m--2846.142495mSECRAnuppur, Madhya Pradesh
54APRAnuppur Junction (4)X  13:00 12:55-13:05 13:00-5m12858.839487mSECRAnuppur, Madhya Pradesh
55CLFChhulha  13:09 13:08-13:11 13:10-2m--2863.975488mSECRMauhari, Madhya Pradesh
56JTIJaithari  13:18 13:17-13:20 13:19-2m--2872.780522mSECRAnuppur, Madhya Pradesh
57NIQNigaura  13:28 13:27-13:30 13:29-2m--2883.365547mSECRAnuppur, Madhya Pradesh
58VKRVenkatnagarX  13:37 13:36-13:39 13:38-2m--2890.979549mSECRPendra Rd, Madhya Pradesh
59HRBHarri  13:47 13:46-13:49 13:48-2m--2901.523595mSECRVenkatnagar, Madhya Pradesh
60PNDPendra RoadO  14:10-14:15 14:12-5 2m--2909.976620mSECRBilaspur district, Chhattisgarh
61KOIKhodri  14:26 14:21-14:28 14:23-2m--2921.441558mSECRBilaspur, Chhattisgarh
62BHTKBhanwar TonkO  14:45 14:40-14:47 14:42-2m--2932.942455mSECRKhodri, Chhattisgarh
63KGSKhongsara  15:04 15:00-15:06 15:02-2m--2945.464378mSECRBhanwar, Chhattisgarh
64TGQTenganmadaX  15:12 15:10-15:16 15:12-4 2m--2953.874367mSECRBelgahna, Chhattisgarh
65BIGBelgahnaXO  15:24 15:20-15:26 15:22-2m--2963.765327mSECRBilaspur, Chhattisgarh
66SLKRSalkaroadO  15:33 15:29-15:35 15:31-2m--2971.370333mSECRGhutku, Chhattisgarh
67KGBKargi RoadO  15:43 15:38-15:45 15:40-2m--2979.459327mSECRBilaspur, Chhattisgarh
68KLTRKalmitarXO  15:53 15:48-15:55 15:50-2m--2987.320300mSECRUsalapur, Chhattisgarh
69GTKGhutku  16:20 16:14-16:22 16:16-2m--2995.321288mSECRBilaspur, Chhattisgarh
70USLUslapur (3)  16:45 16:38-16:50 16:40-5 2m--21002.915272mSECRBilaspur, Chhattisgarh
71BSPBilaspur Junction (8)  17:25 17:15--821011.5-271mSECRBilaspur, Chhattisgarh
Scroll to Top
Scroll to Bottom